Aviation Digital Data Service (ADDS)

Output produced by METARs form (0312 UTC 01 October 2016)
found at http://aviationweather.gov/adds/metars/
 
KOAJ 302339Z 0100/0124 VRB03KT P6SM SCT040 BKN100 
     FM010700 VRB03KT 2SM BR SCT007 BKN040 
     FM011200 18005KT P6SM BKN050 AMD LTD TO CLD VIS AND WIND